sensor_id;sensor_type;location;lat;lon;timestamp;pressure;altitude;pressure_sealevel;temperature;humidity
27958;BME280;15295;42.658;23.374;2023-08-30T03:53:47;93718.19;;;25.16;55.97
27958;BME280;15295;42.658;23.374;2023-08-30T05:19:22;93824.88;;;27.74;46.91
27958;BME280;15295;42.658;23.374;2023-08-30T05:21:58;93810.44;;;27.65;46.65
27958;BME280;15295;42.658;23.374;2023-08-30T05:24:25;93800.34;;;27.50;46.73
27958;BME280;15295;42.658;23.374;2023-08-30T05:32:37;93826.63;;;27.77;46.68
27958;BME280;15295;42.658;23.374;2023-08-30T05:35:05;93824.13;;;27.98;46.52
27958;BME280;15295;42.658;23.374;2023-08-30T05:37:33;93814.44;;;28.17;44.86
27958;BME280;15295;42.658;23.374;2023-08-30T05:39:58;93822.34;;;28.19;44.66
27958;BME280;15295;42.658;23.374;2023-08-30T05:42:33;93829.72;;;28.22;45.32
27958;BME280;15295;42.658;23.374;2023-08-30T05:45:02;93833.31;;;28.41;44.58
27958;BME280;15295;42.658;23.374;2023-08-30T05:47:47;93805.03;;;28.52;44.19
27958;BME280;15295;42.658;23.374;2023-08-30T05:52:48;93802.34;;;28.65;42.14
27958;BME280;15295;42.658;23.374;2023-08-30T06:03:53;93813.53;;;28.47;42.31
27958;BME280;15295;42.658;23.374;2023-08-30T06:07:21;93814.41;;;28.60;42.24
27958;BME280;15295;42.658;23.374;2023-08-30T06:13:42;93792.59;;;28.48;40.55
27958;BME280;15295;42.658;23.374;2023-08-30T06:22:08;93805.19;;;28.41;40.65
27958;BME280;15295;42.658;23.374;2023-08-30T06:25:10;93817.16;;;28.23;41.37
27958;BME280;15295;42.658;23.374;2023-08-30T06:36:09;93812.94;;;28.72;41.65
27958;BME280;15295;42.658;23.374;2023-08-30T06:41:41;93813.91;;;28.93;41.32
27958;BME280;15295;42.658;23.374;2023-08-30T07:18:02;93811.13;;;29.96;36.88
27958;BME280;15295;42.658;23.374;2023-08-30T07:20:32;93799.00;;;30.01;36.73
27958;BME280;15295;42.658;23.374;2023-08-30T07:23:14;93814.06;;;30.17;36.22
27958;BME280;15295;42.658;23.374;2023-08-30T07:25:52;93796.63;;;30.05;35.32
27958;BME280;15295;42.658;23.374;2023-08-30T07:28:24;93824.03;;;30.44;34.75
27958;BME280;15295;42.658;23.374;2023-08-30T07:31:07;93786.00;;;30.11;34.45
27958;BME280;15295;42.658;23.374;2023-08-30T07:33:36;93790.22;;;30.18;35.27
27958;BME280;15295;42.658;23.374;2023-08-30T07:36:05;93828.59;;;30.47;35.42
27958;BME280;15295;42.658;23.374;2023-08-30T07:38:40;93835.69;;;30.74;35.09
27958;BME280;15295;42.658;23.374;2023-08-30T07:41:06;93817.16;;;30.66;34.72
27958;BME280;15295;42.658;23.374;2023-08-30T07:43:37;93812.16;;;30.72;35.24
27958;BME280;15295;42.658;23.374;2023-08-30T07:46:05;93831.09;;;30.97;35.37
27958;BME280;15295;42.658;23.374;2023-08-30T07:48:35;93779.13;;;30.93;35.32
27958;BME280;15295;42.658;23.374;2023-08-30T07:51:11;93804.91;;;31.31;34.25
27958;BME280;15295;42.658;23.374;2023-08-30T07:53:37;93808.22;;;31.42;33.62
27958;BME280;15295;42.658;23.374;2023-08-30T07:56:05;93805.53;;;31.57;32.29
27958;BME280;15295;42.658;23.374;2023-08-30T07:58:37;93822.66;;;31.80;32.19
27958;BME280;15295;42.658;23.374;2023-08-30T08:01:13;93801.34;;;31.79;32.38
27958;BME280;15295;42.658;23.374;2023-08-30T08:03:43;93835.34;;;32.15;32.39
27958;BME280;15295;42.658;23.374;2023-08-30T08:06:17;93817.38;;;32.33;32.16
27958;BME280;15295;42.658;23.374;2023-08-30T08:08:44;93816.34;;;32.51;32.45
27958;BME280;15295;42.658;23.374;2023-08-30T08:11:12;93801.53;;;32.65;32.05
27958;BME280;15295;42.658;23.374;2023-08-30T08:13:44;93784.56;;;32.81;31.39
27958;BME280;15295;42.658;23.374;2023-08-30T08:16:16;93804.81;;;32.92;31.79
27958;BME280;15295;42.658;23.374;2023-08-30T08:18:51;93789.34;;;32.93;31.23
27958;BME280;15295;42.658;23.374;2023-08-30T08:21:23;93805.19;;;32.96;30.38
27958;BME280;15295;42.658;23.374;2023-08-30T08:23:49;93800.78;;;32.72;30.74
27958;BME280;15295;42.658;23.374;2023-08-30T08:26:16;93842.06;;;33.04;31.18
27958;BME280;15295;42.658;23.374;2023-08-30T08:28:45;93822.63;;;33.08;30.88
27958;BME280;15295;42.658;23.374;2023-08-30T08:31:13;93813.38;;;33.15;30.94
27958;BME280;15295;42.658;23.374;2023-08-30T08:33:41;93793.38;;;33.20;30.21
27958;BME280;15295;42.658;23.374;2023-08-30T08:36:16;93792.09;;;33.29;30.32
27958;BME280;15295;42.658;23.374;2023-08-30T08:38:43;93828.38;;;33.61;30.48
27958;BME280;15295;42.658;23.374;2023-08-30T08:41:16;93837.66;;;33.61;29.87
27958;BME280;15295;42.658;23.374;2023-08-30T08:43:48;93830.84;;;33.72;29.58
27958;BME280;15295;42.658;23.374;2023-08-30T08:46:21;93793.25;;;33.56;29.14
27958;BME280;15295;42.658;23.374;2023-08-30T08:48:49;93829.50;;;33.88;28.21
27958;BME280;15295;42.658;23.374;2023-08-30T08:51:18;93801.38;;;33.75;28.49
27958;BME280;15295;42.658;23.374;2023-08-30T08:53:51;93835.72;;;34.24;27.84
27958;BME280;15295;42.658;23.374;2023-08-30T08:56:24;93805.91;;;33.93;27.80
27958;BME280;15295;42.658;23.374;2023-08-30T08:59:00;93805.31;;;34.09;27.50
27958;BME280;15295;42.658;23.374;2023-08-30T09:01:29;93816.47;;;34.23;26.52
27958;BME280;15295;42.658;23.374;2023-08-30T09:03:57;93796.81;;;34.09;27.06
27958;BME280;15295;42.658;23.374;2023-08-30T09:06:24;93806.41;;;34.37;26.42
27958;BME280;15295;42.658;23.374;2023-08-30T09:08:49;93777.09;;;34.34;26.36
27958;BME280;15295;42.658;23.374;2023-08-30T09:11:31;93844.34;;;34.71;26.18
27958;BME280;15295;42.658;23.374;2023-08-30T09:14:00;93804.66;;;34.56;26.19
27958;BME280;15295;42.658;23.374;2023-08-30T09:16:27;93775.94;;;34.37;26.08
27958;BME280;15295;42.658;23.374;2023-08-30T09:19:03;93805.38;;;34.72;26.39
27958;BME280;15295;42.658;23.374;2023-08-30T09:22:00;93829.53;;;34.88;26.15
27958;BME280;15295;42.658;23.374;2023-08-30T09:24:46;93827.78;;;35.00;26.06
27958;BME280;15295;42.658;23.374;2023-08-30T09:27:16;93816.22;;;34.98;26.02
27958;BME280;15295;42.658;23.374;2023-08-30T09:29:44;93805.72;;;34.76;26.53
27958;BME280;15295;42.658;23.374;2023-08-30T09:32:20;93825.81;;;34.70;26.48
27958;BME280;15295;42.658;23.374;2023-08-30T09:34:52;93825.28;;;34.49;26.64
27958;BME280;15295;42.658;23.374;2023-08-30T09:37:23;93808.16;;;34.17;27.28
27958;BME280;15295;42.658;23.374;2023-08-30T09:40:39;93813.44;;;33.90;27.61
27958;BME280;15295;42.658;23.374;2023-08-30T09:43:17;93819.72;;;34.04;27.38
27958;BME280;15295;42.658;23.374;2023-08-30T09:45:52;93789.81;;;34.26;27.72
27958;BME280;15295;42.658;23.374;2023-08-30T09:48:22;93792.16;;;34.59;26.78
27958;BME280;15295;42.658;23.374;2023-08-30T09:51:10;93789.03;;;34.87;26.29
27958;BME280;15295;42.658;23.374;2023-08-30T09:53:44;93762.44;;;34.68;26.42
27958;BME280;15295;42.658;23.374;2023-08-30T09:56:12;93792.56;;;34.96;26.89
27958;BME280;15295;42.658;23.374;2023-08-30T09:58:41;93779.28;;;35.06;26.74
27958;BME280;15295;42.658;23.374;2023-08-30T10:01:12;93775.66;;;35.13;25.64
27958;BME280;15295;42.658;23.374;2023-08-30T10:03:42;93790.47;;;35.36;25.58
27958;BME280;15295;42.658;23.374;2023-08-30T10:06:13;93791.81;;;35.35;25.85
27958;BME280;15295;42.658;23.374;2023-08-30T10:08:42;93773.25;;;35.34;25.35
27958;BME280;15295;42.658;23.374;2023-08-30T10:11:21;93801.53;;;35.56;25.80
27958;BME280;15295;42.658;23.374;2023-08-30T10:14:15;93790.31;;;35.83;25.23
27958;BME280;15295;42.658;23.374;2023-08-30T10:16:58;93782.03;;;35.78;25.34
27958;BME280;15295;42.658;23.374;2023-08-30T10:19:29;93752.97;;;35.62;24.99
27958;BME280;15295;42.658;23.374;2023-08-30T10:22:05;93759.69;;;35.74;24.95
27958;BME280;15295;42.658;23.374;2023-08-30T10:24:49;93740.91;;;35.54;24.93
27958;BME280;15295;42.658;23.374;2023-08-30T10:27:19;93780.94;;;35.73;25.35
27958;BME280;15295;42.658;23.374;2023-08-30T10:29:52;93774.75;;;35.84;25.31
27958;BME280;15295;42.658;23.374;2023-08-30T10:32:23;93803.97;;;36.26;24.82
27958;BME280;15295;42.658;23.374;2023-08-30T10:34:52;93778.75;;;36.23;24.60
27958;BME280;15295;42.658;23.374;2023-08-30T10:37:25;93787.38;;;36.32;24.74
27958;BME280;15295;42.658;23.374;2023-08-30T10:39:58;93761.84;;;36.25;24.69
27958;BME280;15295;42.658;23.374;2023-08-30T10:42:27;93753.50;;;36.27;24.97
27958;BME280;15295;42.658;23.374;2023-08-30T10:45:07;93791.59;;;36.49;24.88
27958;BME280;15295;42.658;23.374;2023-08-30T10:47:39;93784.22;;;36.28;25.07
27958;BME280;15295;42.658;23.374;2023-08-30T10:50:08;93768.47;;;36.27;24.68
27958;BME280;15295;42.658;23.374;2023-08-30T10:52:37;93758.50;;;36.36;24.49
27958;BME280;15295;42.658;23.374;2023-08-30T10:55:32;93791.38;;;36.29;24.83
27958;BME280;15295;42.658;23.374;2023-08-30T10:58:05;93761.59;;;36.13;24.58
27958;BME280;15295;42.658;23.374;2023-08-30T11:00:38;93788.31;;;36.35;24.33
27958;BME280;15295;42.658;23.374;2023-08-30T11:03:10;93784.28;;;36.21;24.22
27958;BME280;15295;42.658;23.374;2023-08-30T11:05:54;93743.97;;;35.73;24.50
27958;BME280;15295;42.658;23.374;2023-08-30T11:08:25;93781.31;;;35.94;24.85
27958;BME280;15295;42.658;23.374;2023-08-30T11:11:07;93735.97;;;35.54;25.27
27958;BME280;15295;42.658;23.374;2023-08-30T11:14:05;93760.16;;;35.63;25.04
27958;BME280;15295;42.658;23.374;2023-08-30T11:16:40;93764.16;;;35.60;24.91
27958;BME280;15295;42.658;23.374;2023-08-30T11:22:16;93759.78;;;35.84;24.57
27958;BME280;15295;42.658;23.374;2023-08-30T11:25:15;93767.22;;;36.21;24.32
27958;BME280;15295;42.658;23.374;2023-08-30T11:27:42;93760.25;;;36.31;24.43
27958;BME280;15295;42.658;23.374;2023-08-30T11:30:13;93712.16;;;36.09;24.22
27958;BME280;15295;42.658;23.374;2023-08-30T11:33:17;93709.75;;;36.05;24.25
27958;BME280;15295;42.658;23.374;2023-08-30T11:36:16;93729.88;;;36.34;24.04
27958;BME280;15295;42.658;23.374;2023-08-30T11:41:22;93714.75;;;36.14;23.96
27958;BME280;15295;42.658;23.374;2023-08-30T11:44:02;93715.75;;;36.26;24.26
27958;BME280;15295;42.658;23.374;2023-08-30T11:46:34;93693.16;;;36.28;24.03
27958;BME280;15295;42.658;23.374;2023-08-30T11:49:03;93730.22;;;36.55;23.90
27958;BME280;15295;42.658;23.374;2023-08-30T11:51:34;93712.94;;;36.70;23.43
27958;BME280;15295;42.658;23.374;2023-08-30T11:54:23;93723.69;;;37.06;22.70
27958;BME280;15295;42.658;23.374;2023-08-30T11:57:12;93713.78;;;37.07;22.77
27958;BME280;15295;42.658;23.374;2023-08-30T11:59:43;93723.94;;;37.00;22.94
27958;BME280;15295;42.658;23.374;2023-08-30T12:02:31;93698.84;;;36.89;23.03
27958;BME280;15295;42.658;23.374;2023-08-30T12:05:02;93688.84;;;36.98;22.54
27958;BME280;15295;42.658;23.374;2023-08-30T12:07:38;93662.09;;;36.84;22.67
27958;BME280;15295;42.658;23.374;2023-08-30T12:10:11;93711.84;;;37.09;22.62
27958;BME280;15295;42.658;23.374;2023-08-30T12:12:44;93700.91;;;37.06;22.59
27958;BME280;15295;42.658;23.374;2023-08-30T12:15:32;93714.09;;;36.84;22.56
27958;BME280;15295;42.658;23.374;2023-08-30T12:18:28;93695.13;;;36.70;22.61
27958;BME280;15295;42.658;23.374;2023-08-30T12:21:04;93688.25;;;36.73;22.35
27958;BME280;15295;42.658;23.374;2023-08-30T12:23:39;93663.16;;;36.62;22.67
27958;BME280;15295;42.658;23.374;2023-08-30T12:26:09;93669.94;;;36.66;22.77
27958;BME280;15295;42.658;23.374;2023-08-30T12:28:57;93697.69;;;36.92;22.81
27958;BME280;15295;42.658;23.374;2023-08-30T12:31:31;93666.81;;;36.72;22.55
27958;BME280;15295;42.658;23.374;2023-08-30T12:33:59;93659.84;;;36.82;22.11
27958;BME280;15295;42.658;23.374;2023-08-30T12:36:25;93689.09;;;37.19;22.45
27958;BME280;15295;42.658;23.374;2023-08-30T12:38:55;93671.28;;;37.28;22.15
27958;BME280;15295;42.658;23.374;2023-08-30T12:41:22;93657.50;;;37.25;20.09
27958;BME280;15295;42.658;23.374;2023-08-30T12:43:51;93669.13;;;37.09;20.69
27958;BME280;15295;42.658;23.374;2023-08-30T12:46:22;93668.38;;;37.09;20.69
27958;BME280;15295;42.658;23.374;2023-08-30T12:48:48;93677.53;;;37.17;20.56
27958;BME280;15295;42.658;23.374;2023-08-30T12:51:17;93645.66;;;36.92;20.69
27958;BME280;15295;42.658;23.374;2023-08-30T12:53:54;93679.59;;;37.07;20.87
27958;BME280;15295;42.658;23.374;2023-08-30T12:56:26;93615.81;;;36.57;20.92
27958;BME280;15295;42.658;23.374;2023-08-30T12:58:57;93618.38;;;36.62;20.93
27958;BME280;15295;42.658;23.374;2023-08-30T13:01:33;93671.44;;;37.21;20.97
27958;BME280;15295;42.658;23.374;2023-08-30T13:04:11;93656.47;;;37.30;20.43
27958;BME280;15295;42.658;23.374;2023-08-30T13:06:41;93645.13;;;37.39;19.47
27958;BME280;15295;42.658;23.374;2023-08-30T13:09:14;93662.38;;;37.41;19.28
27958;BME280;15295;42.658;23.374;2023-08-30T13:11:45;93645.97;;;37.32;18.99
27958;BME280;15295;42.658;23.374;2023-08-30T13:14:14;93630.91;;;37.13;19.36
27958;BME280;15295;42.658;23.374;2023-08-30T13:16:47;93649.81;;;37.18;19.70
27958;BME280;15295;42.658;23.374;2023-08-30T13:19:48;93639.88;;;36.99;20.13
27958;BME280;15295;42.658;23.374;2023-08-30T13:22:28;93648.81;;;36.96;20.58
27958;BME280;15295;42.658;23.374;2023-08-30T13:25:07;93651.25;;;36.99;20.45
27958;BME280;15295;42.658;23.374;2023-08-30T13:27:38;93643.34;;;37.17;20.41
27958;BME280;15295;42.658;23.374;2023-08-30T13:30:09;93613.31;;;36.97;20.59
27958;BME280;15295;42.658;23.374;2023-08-30T13:32:40;93638.84;;;36.78;20.72
27958;BME280;15295;42.658;23.374;2023-08-30T13:35:41;93668.06;;;37.05;21.15
27958;BME280;15295;42.658;23.374;2023-08-30T13:38:08;93631.59;;;36.67;20.86
27958;BME280;15295;42.658;23.374;2023-08-30T13:40:35;93658.00;;;36.77;21.24
27958;BME280;15295;42.658;23.374;2023-08-30T13:43:26;93666.38;;;36.75;21.85
27958;BME280;15295;42.658;23.374;2023-08-30T13:46:03;93661.91;;;36.38;21.61
27958;BME280;15295;42.658;23.374;2023-08-30T13:48:34;93642.34;;;36.25;21.28
27958;BME280;15295;42.658;23.374;2023-08-30T13:51:10;93660.00;;;36.40;20.18
27958;BME280;15295;42.658;23.374;2023-08-30T13:53:57;93664.91;;;36.57;21.35
27958;BME280;15295;42.658;23.374;2023-08-30T13:56:23;93662.34;;;36.34;21.53
27958;BME280;15295;42.658;23.374;2023-08-30T13:58:50;93634.38;;;36.14;21.39
27958;BME280;15295;42.658;23.374;2023-08-30T14:01:19;93657.50;;;36.27;21.57
27958;BME280;15295;42.658;23.374;2023-08-30T14:03:47;93640.31;;;36.08;21.64
27958;BME280;15295;42.658;23.374;2023-08-30T14:06:14;93661.22;;;36.03;20.30
27958;BME280;15295;42.658;23.374;2023-08-30T14:08:40;93653.69;;;35.98;20.57
27958;BME280;15295;42.658;23.374;2023-08-30T14:11:05;93666.56;;;36.16;17.85
27958;BME280;15295;42.658;23.374;2023-08-30T14:13:31;93631.88;;;36.01;17.65
27958;BME280;15295;42.658;23.374;2023-08-30T14:16:01;93645.50;;;36.02;18.05
27958;BME280;15295;42.658;23.374;2023-08-30T14:18:28;93656.50;;;36.32;18.05
27958;BME280;15295;42.658;23.374;2023-08-30T14:20:57;93623.72;;;36.14;17.80
27958;BME280;15295;42.658;23.374;2023-08-30T14:23:27;93665.38;;;36.36;17.67
27958;BME280;15295;42.658;23.374;2023-08-30T14:26:00;93669.16;;;36.22;17.48
27958;BME280;15295;42.658;23.374;2023-08-30T14:28:26;93660.88;;;36.16;17.49
27958;BME280;15295;42.658;23.374;2023-08-30T14:30:53;93669.06;;;36.12;17.56
27958;BME280;15295;42.658;23.374;2023-08-30T14:33:18;93650.00;;;35.88;18.36
27958;BME280;15295;42.658;23.374;2023-08-30T14:35:44;93668.75;;;36.08;18.23
27958;BME280;15295;42.658;23.374;2023-08-30T14:38:10;93676.63;;;36.00;18.64
27958;BME280;15295;42.658;23.374;2023-08-30T14:40:35;93668.81;;;35.84;18.59
27958;BME280;15295;42.658;23.374;2023-08-30T14:43:03;93675.25;;;35.67;18.68
27958;BME280;15295;42.658;23.374;2023-08-30T14:45:28;93677.88;;;35.48;18.67
27958;BME280;15295;42.658;23.374;2023-08-30T14:47:54;93661.63;;;35.16;18.84
27958;BME280;15295;42.658;23.374;2023-08-30T14:50:19;93684.78;;;35.13;18.97
27958;BME280;15295;42.658;23.374;2023-08-30T14:52:51;93698.19;;;34.87;19.10
27958;BME280;15295;42.658;23.374;2023-08-30T14:55:46;93649.97;;;34.08;19.67
27958;BME280;15295;42.658;23.374;2023-08-30T15:11:30;93689.13;;;33.87;24.95
27958;BME280;15295;42.658;23.374;2023-08-30T15:14:04;93710.06;;;33.99;24.76
27958;BME280;15295;42.658;23.374;2023-08-30T15:17:27;93659.13;;;33.69;24.88
27958;BME280;15295;42.658;23.374;2023-08-30T15:30:33;93726.91;;;33.89;25.17
27958;BME280;15295;42.658;23.374;2023-08-30T15:35:57;93701.66;;;33.54;25.86
27958;BME280;15295;42.658;23.374;2023-08-30T15:38:44;93711.47;;;33.37;26.03
27958;BME280;15295;42.658;23.374;2023-08-30T15:41:11;93732.41;;;33.34;26.25
27958;BME280;15295;42.658;23.374;2023-08-30T15:43:38;93727.50;;;33.12;26.51
27958;BME280;15295;42.658;23.374;2023-08-30T15:46:11;93728.94;;;32.83;26.54
27958;BME280;15295;42.658;23.374;2023-08-30T15:48:41;93740.78;;;32.66;26.76
27958;BME280;15295;42.658;23.374;2023-08-30T15:51:12;93726.56;;;32.44;26.99
27958;BME280;15295;42.658;23.374;2023-08-30T15:53:37;93714.19;;;32.19;27.27
27958;BME280;15295;42.658;23.374;2023-08-30T15:56:07;93726.25;;;32.19;27.44
27958;BME280;15295;42.658;23.374;2023-08-30T15:58:32;93726.94;;;32.05;27.66
27958;BME280;15295;42.658;23.374;2023-08-30T16:01:03;93731.88;;;31.83;27.83
27958;BME280;15295;42.658;23.374;2023-08-30T16:03:28;93736.75;;;31.75;28.06
27958;BME280;15295;42.658;23.374;2023-08-30T16:05:55;93744.16;;;31.58;27.93
27958;BME280;15295;42.658;23.374;2023-08-30T16:08:21;93741.25;;;31.50;28.59
27958;BME280;15295;42.658;23.374;2023-08-30T16:10:52;93745.34;;;31.42;28.78
27958;BME280;15295;42.658;23.374;2023-08-30T16:13:18;93725.41;;;31.27;28.77
27958;BME280;15295;42.658;23.374;2023-08-30T16:15:49;93755.22;;;31.35;29.07
27958;BME280;15295;42.658;23.374;2023-08-30T16:18:14;93751.38;;;31.25;29.14
27958;BME280;15295;42.658;23.374;2023-08-30T16:20:41;93754.81;;;31.31;28.95
27958;BME280;15295;42.658;23.374;2023-08-30T16:23:06;93766.75;;;31.37;29.36
27958;BME280;15295;42.658;23.374;2023-08-30T16:25:31;93760.25;;;31.29;28.76
27958;BME280;15295;42.658;23.374;2023-08-30T16:28:05;93775.16;;;31.30;28.46
27958;BME280;15295;42.658;23.374;2023-08-30T16:30:33;93775.28;;;31.24;28.56
27958;BME280;15295;42.658;23.374;2023-08-30T16:33:05;93774.31;;;31.21;28.54
27958;BME280;15295;42.658;23.374;2023-08-30T16:35:30;93770.13;;;31.15;28.36
27958;BME280;15295;42.658;23.374;2023-08-30T16:37:57;93778.81;;;31.17;28.66
27958;BME280;15295;42.658;23.374;2023-08-30T16:40:23;93778.94;;;31.11;28.93
27958;BME280;15295;42.658;23.374;2023-08-30T16:42:48;93780.50;;;30.99;28.88
27958;BME280;15295;42.658;23.374;2023-08-30T16:45:17;93783.47;;;30.94;28.95
27958;BME280;15295;42.658;23.374;2023-08-30T16:47:42;93782.16;;;30.95;29.42
27958;BME280;15295;42.658;23.374;2023-08-30T16:50:08;93783.69;;;30.83;29.44
27958;BME280;15295;42.658;23.374;2023-08-30T16:52:33;93785.34;;;30.78;29.67
27958;BME280;15295;42.658;23.374;2023-08-30T16:54:59;93787.44;;;30.65;29.72
27958;BME280;15295;42.658;23.374;2023-08-30T16:57:25;93791.16;;;30.60;30.14
27958;BME280;15295;42.658;23.374;2023-08-30T16:59:54;93789.84;;;30.61;29.85
27958;BME280;15295;42.658;23.374;2023-08-30T17:02:20;93793.00;;;30.57;29.90
27958;BME280;15295;42.658;23.374;2023-08-30T17:04:45;93794.84;;;30.55;30.06
27958;BME280;15295;42.658;23.374;2023-08-30T17:07:10;93809.38;;;30.45;30.04
27958;BME280;15295;42.658;23.374;2023-08-30T17:09:41;93805.84;;;30.32;30.32
27958;BME280;15295;42.658;23.374;2023-08-30T17:12:06;93807.66;;;30.29;30.63
27958;BME280;15295;42.658;23.374;2023-08-30T17:14:32;93815.47;;;30.23;30.52
27958;BME280;15295;42.658;23.374;2023-08-30T17:16:58;93826.53;;;30.21;30.41
27958;BME280;15295;42.658;23.374;2023-08-30T17:19:25;93815.28;;;30.08;30.57
27958;BME280;15295;42.658;23.374;2023-08-30T17:21:50;93820.78;;;30.01;30.63
27958;BME280;15295;42.658;23.374;2023-08-30T17:24:16;93842.25;;;30.04;30.81
27958;BME280;15295;42.658;23.374;2023-08-30T17:26:41;93832.59;;;29.99;30.53
27958;BME280;15295;42.658;23.374;2023-08-30T17:29:07;93835.63;;;29.88;31.14
27958;BME280;15295;42.658;23.374;2023-08-30T17:31:34;93839.75;;;29.87;30.96
27958;BME280;15295;42.658;23.374;2023-08-30T17:33:59;93842.66;;;29.82;31.36
27958;BME280;15295;42.658;23.374;2023-08-30T17:36:25;93844.63;;;29.87;31.17
27958;BME280;15295;42.658;23.374;2023-08-30T17:38:53;93848.41;;;29.76;31.47
27958;BME280;15295;42.658;23.374;2023-08-30T17:41:21;93861.41;;;29.79;31.48
27958;BME280;15295;42.658;23.374;2023-08-30T17:43:47;93856.09;;;29.76;31.39
27958;BME280;15295;42.658;23.374;2023-08-30T17:46:12;93830.19;;;29.64;31.45
27958;BME280;15295;42.658;23.374;2023-08-30T17:49:04;93879.84;;;29.93;31.47
27958;BME280;15295;42.658;23.374;2023-08-30T18:37:11;93946.97;;;30.21;31.47
27958;BME280;15295;42.658;23.374;2023-08-30T18:49:29;93915.16;;;29.94;32.42
27958;BME280;15295;42.658;23.374;2023-08-30T18:51:54;93936.09;;;30.12;32.24
27958;BME280;15295;42.658;23.374;2023-08-30T18:54:19;93932.97;;;30.28;31.61
27958;BME280;15295;42.658;23.374;2023-08-30T20:38:02;94047.94;;;28.08;35.14
27958;BME280;15295;42.658;23.374;2023-08-30T20:40:47;94044.66;;;28.04;35.48
27958;BME280;15295;42.658;23.374;2023-08-30T20:43:22;94055.19;;;27.98;35.46
27958;BME280;15295;42.658;23.374;2023-08-30T20:45:56;93987.66;;;27.50;35.81
27958;BME280;15295;42.658;23.374;2023-08-30T20:48:39;93991.53;;;27.41;36.40
27958;BME280;15295;42.658;23.374;2023-08-30T20:51:15;94037.59;;;27.57;36.38
27958;BME280;15295;42.658;23.374;2023-08-30T20:54:03;93996.00;;;27.15;36.27
27958;BME280;15295;42.658;23.374;2023-08-30T20:56:51;94055.03;;;27.44;36.56
27958;BME280;15295;42.658;23.374;2023-08-30T21:02:49;94008.84;;;26.94;36.76
27958;BME280;15295;42.658;23.374;2023-08-30T21:06:03;94053.41;;;27.08;36.62
27958;BME280;15295;42.658;23.374;2023-08-30T21:08:54;94004.34;;;26.74;36.92
27958;BME280;15295;42.658;23.374;2023-08-30T21:11:25;94030.03;;;26.89;36.91
27958;BME280;15295;42.658;23.374;2023-08-30T21:16:43;94029.31;;;26.72;37.14
27958;BME280;15295;42.658;23.374;2023-08-30T21:19:34;94053.72;;;26.94;36.78
27958;BME280;15295;42.658;23.374;2023-08-30T21:22:26;94083.72;;;27.10;37.17
27958;BME280;15295;42.658;23.374;2023-08-30T21:25:22;94078.13;;;27.10;37.22
27958;BME280;15295;42.658;23.374;2023-08-30T21:28:07;94040.47;;;26.89;36.75
27958;BME280;15295;42.658;23.374;2023-08-30T21:31:24;94077.59;;;27.17;37.03
27958;BME280;15295;42.658;23.374;2023-08-30T21:34:27;94090.59;;;27.14;37.09
27958;BME280;15295;42.658;23.374;2023-08-30T21:55:15;94093.47;;;26.98;37.86
27958;BME280;15295;42.658;23.374;2023-08-30T21:58:20;94083.56;;;26.91;37.83
27958;BME280;15295;42.658;23.374;2023-08-30T22:01:31;94032.69;;;26.48;37.57
27958;BME280;15295;42.658;23.374;2023-08-30T22:04:46;94096.31;;;26.70;37.98
27958;BME280;15295;42.658;23.374;2023-08-30T22:07:34;94058.41;;;26.47;37.86
27958;BME280;15295;42.658;23.374;2023-08-30T22:10:59;94082.34;;;26.48;37.53
